Главная страница
METAR-TAF:

METAR-TAF

Аэропорты :

Рёрус, Норвегия

широта: 62-35N, долгота: 011-21E, высота над уровнем моря: 626 м

Текущие метеонаблюдения

Эта сводка был подготовлена 8 минут назад, в 23:20 UTC
Ветер 3 Узел от южный, изменяющийся между юго-юго-восточный и южный-юго-западный
Температура -4°C
Влажность 86%
Давление 1005 hPa
Видимость 10 км и более

METAR: ENRO 072320Z AUTO 19003KT 150V210 9999NDV BKN026/// M04/M06 Q1005

Время: 01:28 (23:28 UTC)

Прогноз

Эта сводка был подготовлена 9 часа и 28 минут назад, в 14:00 UTC
Прогноз действительный с 07-го 15 UTC до 07-го 20 UTC
Ветер 8 Узел от западный
Видимость 10 км и более
Нет облачности ниже 1500 м, и нет кучево-дождевой облачности
Вероятность 30% :
временами
С 07-го 18 UTC до 07-го 20 UTC
Видимость: 3000 м
Рассеянная облачность на высоте 1400 фута
Отдельные облака на высоте 2000 фута, Кучево-дождевые.
небольшие ливневые снегопады

TAF: ENRO 071400Z 0715/0720 28008KT CAVOK PROB30 TEMPO 0718/0720 3000 -SHSN BKN014 SCT020CB

Метеонаблюдения и прогнозы для более 4000 аэропортов (сводки METAR и TAF).

Имеющиеся станции представлены на карте желтыми и красными точками.

Чтобы увидеть название станции, наведите на нее мышь.

Затем щелкните, чтобы увидеть метеонаблюдения и метеопрогнозы.

Управление картой: чтобы увеличить масштаб, щелкните зеленые кнопки с черным крестиком; чтобы уменьшить масштаб, щелкните зеленую кнопку с тире; для просмотра соседних карт щелкайте зеленые стрелки.


METAR-TAF: